createdAt,value
2019-04-03T00:00:14.186Z,11.13
2019-04-03T00:02:42.711Z,11.47
2019-04-03T00:05:11.317Z,12.33
2019-04-03T00:07:39.925Z,11.80
2019-04-03T00:10:08.508Z,13.00
2019-04-03T00:12:37.355Z,10.93
2019-04-03T00:15:06.807Z,12.13
2019-04-03T00:17:35.258Z,11.60
2019-04-03T00:20:07.689Z,11.00
2019-04-03T00:22:37.666Z,11.77
2019-04-03T00:25:07.167Z,12.43
2019-04-03T00:27:35.691Z,11.33
2019-04-03T00:30:06.199Z,12.67
2019-04-03T00:32:34.652Z,11.20
2019-04-03T00:35:04.331Z,11.80
2019-04-03T00:37:32.865Z,12.23
2019-04-03T00:40:01.392Z,12.83
2019-04-03T00:42:29.852Z,12.00
2019-04-03T00:44:58.388Z,12.07
2019-04-03T00:47:26.912Z,11.97
2019-04-03T00:49:57.024Z,12.70
2019-04-03T00:52:27.215Z,11.90
2019-04-03T00:54:56.611Z,13.47
2019-04-03T00:57:26.415Z,11.40
2019-04-03T00:59:56.412Z,11.33
2019-04-03T01:02:27.857Z,11.50
2019-04-03T01:04:58.016Z,11.03
2019-04-03T01:07:25.766Z,12.33
2019-04-03T01:09:54.371Z,11.50
2019-04-03T01:12:22.972Z,12.17
2019-04-03T01:14:51.459Z,11.40
2019-04-03T01:17:20.105Z,13.33
2019-04-03T01:19:48.611Z,13.23
2019-04-03T01:22:17.161Z,11.47
2019-04-03T01:24:45.671Z,13.20
2019-04-03T01:27:14.132Z,12.53
2019-04-03T01:29:43.093Z,12.53
2019-04-03T01:32:11.821Z,12.60
2019-04-03T01:34:40.438Z,13.30
2019-04-03T01:37:08.966Z,13.57
2019-04-03T01:39:37.548Z,13.07
2019-04-03T01:42:06.226Z,11.33
2019-04-03T01:44:34.675Z,12.37
2019-04-03T01:47:03.366Z,12.60
2019-04-03T01:49:31.871Z,11.10
2019-04-03T01:52:00.866Z,11.43
2019-04-03T01:54:29.967Z,12.53
2019-04-03T01:56:58.432Z,11.50
2019-04-03T01:59:26.940Z,12.43
2019-04-03T02:01:55.435Z,12.23
2019-04-03T02:04:23.882Z,12.50
2019-04-03T02:06:52.426Z,11.97
2019-04-03T02:09:21.058Z,12.57
2019-04-03T02:11:49.837Z,11.97
2019-04-03T02:14:21.274Z,11.90
2019-04-03T02:16:48.623Z,11.57
2019-04-03T02:19:17.115Z,12.63
2019-04-03T02:21:45.615Z,11.40
2019-04-03T02:24:14.083Z,12.53
2019-04-03T02:26:42.527Z,13.00
2019-04-03T02:29:10.995Z,11.60
2019-04-03T02:31:39.699Z,11.90
2019-04-03T02:34:08.267Z,11.20
2019-04-03T02:36:37.016Z,10.70
2019-04-03T02:39:06.472Z,12.37
2019-04-03T02:41:36.752Z,11.90
2019-04-03T02:44:05.515Z,12.93
2019-04-03T02:46:34.042Z,12.03
2019-04-03T02:49:02.584Z,12.37
2019-04-03T02:51:31.403Z,13.30
2019-04-03T02:54:02.315Z,12.87
2019-04-03T02:56:30.192Z,12.30
2019-04-03T02:58:58.901Z,12.27
2019-04-03T03:01:27.499Z,12.33
2019-04-03T03:03:56.245Z,13.63
2019-04-03T03:06:25.104Z,12.70
2019-04-03T03:08:54.263Z,11.40
2019-04-03T03:11:24.630Z,13.17
2019-04-03T03:13:53.779Z,13.03
2019-04-03T03:16:22.883Z,12.70
2019-04-03T03:18:51.556Z,13.90
2019-04-03T03:21:20.459Z,12.47
2019-04-03T03:23:49.556Z,12.70
2019-04-03T03:26:18.070Z,12.40
2019-04-03T03:28:47.616Z,12.80
2019-04-03T03:31:17.537Z,12.07
2019-04-03T03:33:47.401Z,13.00
2019-04-03T03:36:22.681Z,12.73
2019-04-03T03:38:46.396Z,12.30
2019-04-03T03:41:15.779Z,13.93
2019-04-03T03:43:45.333Z,12.43
2019-04-03T03:46:14.997Z,11.90
2019-04-03T03:48:45.037Z,12.10
2019-04-03T03:51:15.322Z,12.93
2019-04-03T03:53:46.726Z,12.20
2019-04-03T03:56:19.630Z,12.33
2019-04-03T03:58:51.949Z,12.87
2019-04-03T04:01:20.890Z,12.73
2019-04-03T04:03:49.516Z,11.83
2019-04-03T04:06:18.167Z,13.57
2019-04-03T04:08:46.942Z,13.67
2019-04-03T04:11:15.561Z,13.53
2019-04-03T04:13:47.650Z,13.20
2019-04-03T04:16:15.177Z,13.40
2019-04-03T04:18:44.140Z,12.23
2019-04-03T04:21:12.772Z,12.83
2019-04-03T04:23:41.266Z,12.13
2019-04-03T04:26:10.282Z,11.97
2019-04-03T04:28:40.590Z,12.37
2019-04-03T04:31:12.184Z,13.73
2019-04-03T04:33:39.619Z,13.63
2019-04-03T04:36:08.172Z,12.50
2019-04-03T04:38:36.796Z,14.03
2019-04-03T04:41:05.302Z,12.60
2019-04-03T04:43:33.767Z,12.50
2019-04-03T04:46:02.248Z,12.47
2019-04-03T04:48:30.906Z,11.13
2019-04-03T04:50:59.434Z,14.03
2019-04-03T04:53:29.843Z,13.40
2019-04-03T04:55:58.088Z,12.33
2019-04-03T04:58:26.611Z,13.70
2019-04-03T05:00:55.076Z,13.57
2019-04-03T05:03:23.538Z,13.17
2019-04-03T05:05:52.055Z,13.40
2019-04-03T05:08:20.520Z,12.63
2019-04-03T05:10:49.429Z,11.80
2019-04-03T05:13:18.155Z,12.20
2019-04-03T05:15:46.678Z,13.70
2019-04-03T05:18:15.457Z,13.70
2019-04-03T05:20:44.288Z,12.83
2019-04-03T05:23:13.011Z,12.57
2019-04-03T05:25:41.599Z,13.00
2019-04-03T05:28:10.044Z,13.43
2019-04-03T05:30:39.226Z,12.33
2019-04-03T05:33:10.607Z,13.40
2019-04-03T05:35:37.848Z,11.17
2019-04-03T05:38:06.760Z,12.37
2019-04-03T05:40:35.448Z,11.60
2019-04-03T05:43:04.052Z,12.47
2019-04-03T05:45:34.480Z,13.90
2019-04-03T05:48:03.009Z,13.03
2019-04-03T05:50:31.527Z,12.83
2019-04-03T05:53:00.174Z,13.03
2019-04-03T05:55:28.627Z,12.30
2019-04-03T05:57:57.151Z,11.90
2019-04-03T06:00:26.106Z,12.27
2019-04-03T06:02:57.042Z,12.67
2019-04-03T06:05:24.968Z,13.53
2019-04-03T06:07:53.444Z,13.57
2019-04-03T06:10:22.036Z,14.50
2019-04-03T06:12:50.499Z,13.50
2019-04-03T06:15:21.809Z,14.27
2019-04-03T06:17:50.874Z,12.27
2019-04-03T06:20:19.799Z,13.57
2019-04-03T06:22:49.896Z,13.50
2019-04-03T06:25:18.632Z,12.93
2019-04-03T06:27:47.156Z,14.13
2019-04-03T06:30:16.182Z,13.27
2019-04-03T06:32:44.640Z,12.10
2019-04-03T06:35:13.851Z,13.80
2019-04-03T06:37:42.966Z,14.40
2019-04-03T06:40:12.104Z,12.73
2019-04-03T06:42:41.008Z,13.47
2019-04-03T06:45:11.347Z,14.10
2019-04-03T06:47:40.077Z,13.53
2019-04-03T06:50:08.790Z,12.73
2019-04-03T06:52:37.352Z,12.40
2019-04-03T06:55:06.303Z,12.23
2019-04-03T06:57:34.901Z,12.30
2019-04-03T07:00:04.332Z,12.60
2019-04-03T07:02:33.178Z,13.03
2019-04-03T07:05:02.625Z,11.97
2019-04-03T07:07:34.777Z,12.37
2019-04-03T07:10:02.318Z,13.17
2019-04-03T07:12:31.932Z,12.63
2019-04-03T07:15:00.562Z,12.53
2019-04-03T07:17:31.413Z,18.07
2019-04-03T07:20:12.032Z,17.73
2019-04-03T07:22:29.674Z,14.60
2019-04-03T07:24:58.198Z,14.00
2019-04-03T07:27:26.715Z,14.23
2019-04-03T07:29:55.164Z,14.30
2019-04-03T07:32:25.837Z,13.60
2019-04-03T07:34:53.807Z,14.40
2019-04-03T07:37:22.530Z,14.03
2019-04-03T07:39:51.004Z,14.00
2019-04-03T07:42:19.459Z,15.80
2019-04-03T07:44:47.924Z,14.90
2019-04-03T07:47:16.381Z,15.23
2019-04-03T07:49:45.059Z,14.80
2019-04-03T07:52:16.278Z,16.13
2019-04-03T07:54:43.867Z,15.50
2019-04-03T07:57:12.320Z,15.30
2019-04-03T07:59:40.823Z,15.17
2019-04-03T08:02:12.100Z,13.20
2019-04-03T08:04:39.452Z,13.50
2019-04-03T08:07:07.991Z,13.73
2019-04-03T08:09:36.443Z,12.00
2019-04-03T08:12:05.294Z,10.07
2019-04-03T08:14:33.884Z,11.20
2019-04-03T08:17:02.331Z,9.60
2019-04-03T08:19:30.907Z,8.70
2019-04-03T08:22:01.885Z,10.20
2019-04-03T08:24:29.675Z,9.50
2019-04-03T08:26:58.142Z,9.40
2019-04-03T08:29:26.968Z,8.40
2019-04-03T08:31:55.840Z,8.77
2019-04-03T08:34:24.523Z,10.13
2019-04-03T08:36:53.199Z,9.57
2019-04-03T08:39:21.776Z,9.80
2019-04-03T08:41:50.235Z,9.67
2019-04-03T08:44:18.699Z,9.97
2019-04-03T08:46:47.515Z,8.60
2019-04-03T08:49:16.031Z,9.13
2019-04-03T08:51:44.562Z,9.40
2019-04-03T08:54:13.020Z,9.57
2019-04-03T08:56:41.490Z,8.10
2019-04-03T08:59:12.705Z,9.50
2019-04-03T09:01:40.230Z,9.50
2019-04-03T09:04:09.623Z,9.43
2019-04-03T09:06:38.075Z,7.60
2019-04-03T09:09:09.362Z,8.80
2019-04-03T09:11:38.180Z,7.53
2019-04-03T09:14:06.894Z,8.73
2019-04-03T09:16:35.625Z,7.83
2019-04-03T09:19:04.264Z,7.60
2019-04-03T09:21:32.776Z,7.80
2019-04-03T09:24:01.327Z,8.17
2019-04-03T09:26:29.988Z,8.83
2019-04-03T09:28:59.471Z,7.70
2019-04-03T09:31:27.931Z,8.43
2019-04-03T09:33:57.520Z,7.90
2019-04-03T09:36:26.587Z,8.43
2019-04-03T09:38:55.133Z,8.43
2019-04-03T09:41:23.659Z,7.83
2019-04-03T09:43:54.261Z,7.70
2019-04-03T09:46:22.486Z,7.90
2019-04-03T09:48:51.184Z,7.97
2019-04-03T09:51:22.386Z,7.73
2019-04-03T09:53:50.376Z,6.70
2019-04-03T09:56:18.843Z,7.90
2019-04-03T09:58:47.307Z,7.23
2019-04-03T10:01:17.974Z,7.50
2019-04-03T10:03:46.003Z,7.07
2019-04-03T10:06:14.526Z,7.67
2019-04-03T10:08:42.979Z,8.77
2019-04-03T10:11:14.348Z,8.03
2019-04-03T10:13:41.740Z,8.30
2019-04-03T10:16:10.340Z,7.90
2019-04-03T10:18:40.865Z,7.80
2019-04-03T10:21:09.068Z,7.63
2019-04-03T10:23:37.586Z,7.70
2019-04-03T10:26:08.783Z,7.20
2019-04-03T10:28:36.537Z,8.63
2019-04-03T10:31:05.282Z,7.60
2019-04-03T10:33:33.752Z,7.20
2019-04-03T10:36:02.254Z,6.60
2019-04-03T10:38:30.815Z,6.87
2019-04-03T10:40:59.823Z,7.50
2019-04-03T10:43:28.471Z,6.50
2019-04-03T10:45:56.923Z,7.13
2019-04-03T10:48:27.326Z,7.40
2019-04-03T10:50:56.498Z,7.53
2019-04-03T10:53:24.943Z,7.20
2019-04-03T10:55:53.402Z,7.77
2019-04-03T10:58:21.852Z,7.40
2019-04-03T11:00:50.389Z,7.43
2019-04-03T11:03:18.907Z,6.83
2019-04-03T11:05:47.431Z,8.47
2019-04-03T11:08:15.901Z,7.83
2019-04-03T11:10:44.436Z,6.57
2019-04-03T11:13:13.351Z,7.63
2019-04-03T11:15:43.822Z,7.13
2019-04-03T11:18:12.202Z,6.97
2019-04-03T11:20:41.451Z,8.93
2019-04-03T11:23:10.038Z,7.33
2019-04-03T11:25:41.443Z,7.50
2019-04-03T11:28:08.769Z,6.33
2019-04-03T11:30:37.750Z,6.97
2019-04-03T11:33:06.286Z,7.47
2019-04-03T11:35:34.891Z,7.70
2019-04-03T11:38:13.084Z,7.83
2019-04-03T11:40:33.615Z,7.40
2019-04-03T11:43:02.151Z,7.67
2019-04-03T11:45:30.628Z,6.83
2019-04-03T11:47:59.125Z,6.80
2019-04-03T11:50:27.902Z,6.27
2019-04-03T11:52:56.406Z,5.70
2019-04-03T11:55:24.878Z,5.77
2019-04-03T11:57:53.328Z,6.60
2019-04-03T12:00:23.875Z,5.13
2019-04-03T12:02:52.374Z,5.73
2019-04-03T12:05:21.503Z,4.93
2019-04-03T12:07:50.236Z,5.40
2019-04-03T12:10:19.227Z,4.70
2019-04-03T12:12:48.085Z,5.40
2019-04-03T12:15:19.802Z,4.87
2019-04-03T12:17:46.866Z,4.80
2019-04-03T12:20:16.732Z,4.90
2019-04-03T12:22:45.374Z,4.30
2019-04-03T12:25:15.175Z,4.73
2019-04-03T12:27:45.980Z,4.60
2019-04-03T12:30:15.113Z,4.70
2019-04-03T12:32:48.641Z,4.40
2019-04-03T12:35:15.045Z,4.27
2019-04-03T12:37:43.694Z,4.20
2019-04-03T12:40:12.592Z,4.13
2019-04-03T12:42:41.265Z,4.10
2019-04-03T12:45:10.677Z,4.10
2019-04-03T12:47:39.378Z,4.40
2019-04-03T12:50:08.581Z,3.93
2019-04-03T12:52:37.646Z,4.13
2019-04-03T12:55:07.509Z,3.87
2019-04-03T12:57:38.902Z,3.47
2019-04-03T13:00:11.566Z,4.03
2019-04-03T13:02:40.133Z,3.50
2019-04-03T13:05:09.206Z,3.70
2019-04-03T13:07:37.801Z,4.20
2019-04-03T13:10:08.559Z,4.70
2019-04-03T13:12:37.338Z,4.20
2019-04-03T13:15:11.439Z,3.77
2019-04-03T13:17:42.885Z,3.57
2019-04-03T13:20:10.743Z,3.27
2019-04-03T13:22:41.309Z,3.60
2019-04-03T13:25:10.759Z,3.13
2019-04-03T13:27:39.777Z,3.07
2019-04-03T13:30:11.903Z,3.20
2019-04-03T13:32:41.023Z,3.23
2019-04-03T13:35:10.220Z,3.00
2019-04-03T13:37:38.888Z,3.23
2019-04-03T13:40:09.323Z,3.43
2019-04-03T13:42:37.911Z,3.40
2019-04-03T13:45:08.274Z,3.47
2019-04-03T13:47:39.875Z,4.27
2019-04-03T13:50:09.492Z,3.50
2019-04-03T13:52:42.465Z,2.90
2019-04-03T13:55:09.135Z,3.00
2019-04-03T13:57:37.877Z,3.33
2019-04-03T14:00:19.185Z,3.43
2019-04-03T14:02:37.837Z,3.00
2019-04-03T14:05:08.725Z,3.07
2019-04-03T14:07:40.468Z,3.57
2019-04-03T14:10:09.882Z,3.43
2019-04-03T14:12:43.289Z,2.80
2019-04-03T14:15:09.680Z,3.73
2019-04-03T14:17:38.517Z,3.20
2019-04-03T14:20:09.944Z,3.17
2019-04-03T14:22:38.530Z,3.53
2019-04-03T14:25:18.461Z,3.50
2019-04-03T14:27:37.680Z,3.13
2019-04-03T14:30:11.163Z,4.20
2019-04-03T14:32:40.247Z,3.20
2019-04-03T14:35:38.303Z,3.33
2019-04-03T14:37:39.704Z,3.80
2019-04-03T14:40:11.129Z,3.60
2019-04-03T14:42:38.657Z,2.63
2019-04-03T14:45:08.129Z,3.20
2019-04-03T14:47:36.790Z,2.67
2019-04-03T14:50:07.208Z,2.67
2019-04-03T14:52:36.349Z,3.20
2019-04-03T14:55:17.155Z,2.37
2019-04-03T14:57:37.258Z,3.20
2019-04-03T15:00:24.962Z,3.27
2019-04-03T15:02:42.380Z,2.90
2019-04-03T15:05:11.062Z,2.90
2019-04-03T15:07:40.412Z,2.80
2019-04-03T15:10:10.794Z,2.80
2019-04-03T15:12:40.708Z,2.53
2019-04-03T15:15:10.024Z,2.53
2019-04-03T15:17:38.871Z,2.70
2019-04-03T15:20:10.538Z,2.40
2019-04-03T15:22:39.419Z,2.63
2019-04-03T15:25:08.853Z,2.00
2019-04-03T15:27:38.121Z,2.20
2019-04-03T15:30:09.916Z,2.03
2019-04-03T15:32:38.647Z,2.43
2019-04-03T15:35:08.078Z,2.53
2019-04-03T15:37:39.939Z,7.50
2019-04-03T15:40:08.039Z,2.30
2019-04-03T15:42:39.851Z,2.30
2019-04-03T15:45:08.123Z,4.83
2019-04-03T15:47:39.657Z,2.50
2019-04-03T15:50:09.157Z,2.50
2019-04-03T15:52:38.593Z,2.80
2019-04-03T15:55:07.873Z,3.30
2019-04-03T15:57:39.491Z,2.33
2019-04-03T16:00:11.487Z,3.07
2019-04-03T16:02:40.424Z,2.00
2019-04-03T16:05:09.747Z,2.70
2019-04-03T16:07:41.442Z,2.30
2019-04-03T16:10:08.570Z,2.37
2019-04-03T16:12:41.590Z,1.80
2019-04-03T16:15:09.769Z,2.07
2019-04-03T16:17:39.635Z,2.43
2019-04-03T16:20:10.438Z,2.30
2019-04-03T16:22:39.154Z,2.80
2019-04-03T16:25:08.401Z,2.00
2019-04-03T16:27:37.444Z,2.37
2019-04-03T16:30:08.398Z,1.70
2019-04-03T16:32:36.968Z,1.40
2019-04-03T16:35:07.785Z,1.90
2019-04-03T16:37:36.342Z,1.80
2019-04-03T16:40:06.802Z,1.80
2019-04-03T16:42:35.650Z,2.03
2019-04-03T16:45:08.497Z,2.20
2019-04-03T16:47:37.848Z,1.83
2019-04-03T16:50:10.983Z,1.87
2019-04-03T16:52:40.043Z,1.90
2019-04-03T16:55:10.071Z,2.17
2019-04-03T16:57:39.339Z,2.67
2019-04-03T17:00:10.122Z,2.17
2019-04-03T17:02:39.031Z,1.70
2019-04-03T17:05:11.323Z,1.73
2019-04-03T17:07:40.481Z,1.73
2019-04-03T17:10:10.743Z,1.73
2019-04-03T17:12:40.380Z,2.33
2019-04-03T17:15:10.046Z,2.00
2019-04-03T17:17:39.143Z,1.90
2019-04-03T17:20:09.412Z,2.00
2019-04-03T17:22:40.865Z,2.30
2019-04-03T17:25:08.818Z,1.70
2019-04-03T17:27:37.766Z,2.40
2019-04-03T17:30:11.380Z,2.53
2019-04-03T17:32:40.033Z,2.37
2019-04-03T17:35:08.972Z,3.33
2019-04-03T17:37:37.504Z,3.23
2019-04-03T17:40:10.860Z,2.47
2019-04-03T17:42:40.228Z,2.40
2019-04-03T17:45:09.698Z,2.77
2019-04-03T17:47:38.239Z,2.67
2019-04-03T17:50:07.928Z,2.47
2019-04-03T17:52:37.090Z,3.10
2019-04-03T17:55:10.103Z,3.80
2019-04-03T17:57:39.150Z,2.50
2019-04-03T18:00:10.814Z,2.60
2019-04-03T18:02:39.275Z,3.00
2019-04-03T18:05:08.795Z,2.60
2019-04-03T18:07:37.328Z,2.60
2019-04-03T18:10:12.246Z,3.00
2019-04-03T18:12:38.384Z,2.53
2019-04-03T18:15:09.304Z,2.67
2019-04-03T18:17:37.890Z,3.13
2019-04-03T18:20:08.443Z,3.50
2019-04-03T18:22:36.991Z,3.40
2019-04-03T18:25:08.924Z,2.33
2019-04-03T18:27:37.506Z,3.40
2019-04-03T18:30:11.295Z,3.10
2019-04-03T18:32:39.119Z,2.70
2019-04-03T18:35:08.409Z,3.00
2019-04-03T18:37:37.015Z,2.83
2019-04-03T18:40:07.304Z,3.03
2019-04-03T18:42:35.905Z,3.47
2019-04-03T18:45:05.807Z,3.27
2019-04-03T18:47:41.191Z,3.57
2019-04-03T18:50:05.693Z,3.50
2019-04-03T18:52:34.316Z,3.40
2019-04-03T18:55:02.833Z,3.47
2019-04-03T18:57:31.267Z,3.90
2019-04-03T19:00:00.734Z,3.33
2019-04-03T19:02:29.415Z,3.83
2019-04-03T19:05:02.322Z,3.80
2019-04-03T19:07:28.116Z,3.53
2019-04-03T19:10:06.334Z,3.80
2019-04-03T19:12:35.606Z,3.67
2019-04-03T19:14:56.915Z,3.60
2019-04-03T19:17:25.552Z,3.70
2019-04-03T19:20:04.033Z,3.30
2019-04-03T19:22:25.692Z,3.60
2019-04-03T19:24:54.555Z,3.67
2019-04-03T19:27:23.070Z,3.80
2019-04-03T19:29:51.530Z,4.30
2019-04-03T19:32:20.075Z,3.60
2019-04-03T19:34:51.919Z,3.97
2019-04-03T19:37:18.777Z,3.43
2019-04-03T19:39:47.287Z,3.70
2019-04-03T19:42:15.818Z,3.50
2019-04-03T19:44:44.275Z,3.27
2019-04-03T19:47:12.741Z,3.80
2019-04-03T19:49:41.325Z,4.00
2019-04-03T19:52:09.846Z,3.90
2019-04-03T19:54:38.293Z,3.53
2019-04-03T19:57:06.817Z,3.40
2019-04-03T19:59:35.351Z,4.00
2019-04-03T20:02:03.859Z,4.67
2019-04-03T20:04:32.460Z,3.83
2019-04-03T20:07:00.976Z,4.20
2019-04-03T20:09:31.872Z,4.10
2019-04-03T20:11:59.608Z,4.50
2019-04-03T20:14:28.068Z,6.20
2019-04-03T20:16:58.492Z,6.27
2019-04-03T20:19:27.330Z,4.70
2019-04-03T20:21:55.959Z,4.13
2019-04-03T20:24:25.265Z,4.10
2019-04-03T20:26:54.519Z,4.10
2019-04-03T20:29:22.961Z,4.03
2019-04-03T20:31:51.415Z,4.00
2019-04-03T20:34:19.856Z,3.63
2019-04-03T20:37:07.651Z,4.00
2019-04-03T20:39:36.162Z,3.77
2019-04-03T20:42:07.343Z,5.10
2019-04-03T20:44:35.067Z,4.53
2019-04-03T20:47:03.523Z,4.30
2019-04-03T20:49:31.990Z,4.40
2019-04-03T20:52:00.519Z,4.93
2019-04-03T20:54:28.980Z,4.47
2019-04-03T20:56:58.465Z,4.30
2019-04-03T20:59:30.019Z,4.70
2019-04-03T21:01:57.955Z,4.20
2019-04-03T21:04:26.443Z,5.27
2019-04-03T21:06:54.886Z,5.10
2019-04-03T21:09:23.352Z,4.27
2019-04-03T21:11:51.788Z,4.20
2019-04-03T21:14:20.251Z,4.57
2019-04-03T21:16:48.716Z,4.80
2019-04-03T21:19:17.154Z,5.70
2019-04-03T21:21:45.686Z,5.53
2019-04-03T21:24:14.254Z,5.53
2019-04-03T21:26:42.734Z,5.77
2019-04-03T21:29:11.179Z,5.70
2019-04-03T21:31:39.639Z,6.10
2019-04-03T21:34:08.079Z,5.90
2019-04-03T21:36:38.471Z,6.07
2019-04-03T21:39:07.547Z,5.17
2019-04-03T21:41:35.991Z,5.03
2019-04-03T21:44:04.519Z,5.93
2019-04-03T21:46:32.954Z,4.70
2019-04-03T21:49:01.410Z,4.40
2019-04-03T21:51:29.871Z,5.20
2019-04-03T21:53:58.336Z,4.87
2019-04-03T21:56:26.865Z,5.90
2019-04-03T21:58:55.302Z,5.03
2019-04-03T22:01:25.970Z,4.50
2019-04-03T22:03:54.489Z,4.80
2019-04-03T22:06:23.085Z,4.93
2019-04-03T22:08:51.853Z,5.00
2019-04-03T22:11:20.466Z,5.50
2019-04-03T22:13:48.923Z,5.67
2019-04-03T22:16:19.591Z,6.00
2019-04-03T22:18:47.544Z,4.97
2019-04-03T22:21:15.989Z,4.90
2019-04-03T22:23:44.442Z,4.97
2019-04-03T22:26:12.976Z,6.00
2019-04-03T22:28:41.410Z,5.07
2019-04-03T22:31:09.870Z,5.33
2019-04-03T22:33:38.316Z,5.57
2019-04-03T22:36:06.775Z,6.00
2019-04-03T22:38:37.156Z,4.73
2019-04-03T22:41:05.542Z,5.30
2019-04-03T22:43:34.003Z,5.03
2019-04-03T22:46:02.450Z,5.63
2019-04-03T22:48:30.959Z,4.23
2019-04-03T22:50:59.455Z,5.20
2019-04-03T22:53:27.919Z,5.20
2019-04-03T22:55:56.382Z,5.30
2019-04-03T22:58:24.844Z,4.60
2019-04-03T23:00:53.427Z,4.67
2019-04-03T23:03:22.095Z,6.00
2019-04-03T23:05:50.604Z,5.57
2019-04-03T23:08:19.046Z,5.53
2019-04-03T23:10:47.503Z,5.10
2019-04-03T23:13:16.377Z,4.97
2019-04-03T23:15:44.867Z,4.80
2019-04-03T23:18:14.005Z,5.10
2019-04-03T23:20:43.559Z,5.70
2019-04-03T23:23:12.005Z,5.40
2019-04-03T23:25:40.529Z,5.20
2019-04-03T23:28:09.043Z,5.10
2019-04-03T23:30:39.116Z,4.87
2019-04-03T23:33:07.748Z,4.83
2019-04-03T23:35:36.331Z,4.50
2019-04-03T23:38:05.020Z,5.57
2019-04-03T23:40:34.716Z,5.60
2019-04-03T23:43:03.562Z,5.70
2019-04-03T23:45:32.367Z,5.10
2019-04-03T23:48:00.875Z,4.87
2019-04-03T23:50:29.329Z,4.80
2019-04-03T23:53:00.709Z,5.17
2019-04-03T23:55:27.964Z,5.60
2019-04-03T23:57:56.424Z,5.10
